Time;durP1;ratioP1;P1;durP2;ratioP2;P2;SDS_P1;SDS_P2;PMS_P1;PMS_P2;Temp;Humidity;BMP_temperature;BMP_pressure;BME280_temperature;BME280_humidity;BME280_pressure;Samples;Min_cycle;Max_cycle;Signal;HPM_P1;HPM_P2
2020/12/09 00:00:00;;;;;;;21.13;9.02;;;;;;;-7.44;73.71;100554.34;3495715;28;20091;-39
2020/12/09 00:01:42;;;;;;;22.98;10.05;;;;;;;-7.44;73.77;100560.25;3492389;28;20067;-39
2020/12/09 00:03:24;;;;;;;29.50;11.68;;;;;;;-7.45;73.77;100555.06;3490258;28;20053;-39
2020/12/09 00:05:07;;;;;;;23.55;9.60;;;;;;;-7.45;73.74;100557.59;3495492;28;20094;-39
2020/12/09 00:06:50;;;;;;;26.85;9.77;;;;;;;-7.45;73.62;100552.53;3492358;28;20063;-39
2020/12/09 00:08:32;;;;;;;19.63;7.60;;;;;;;-7.45;73.64;100550.03;3492779;28;20146;-41
2020/12/09 00:10:15;;;;;;;20.73;8.85;;;;;;;-7.44;73.51;100551.81;3495047;28;20362;-39
2020/12/09 00:11:56;;;;;;;28.38;9.75;;;;;;;-7.43;73.41;100551.97;3493192;28;20162;-40
2020/12/09 00:13:38;;;;;;;24.08;10.23;;;;;;;-7.42;73.34;100546.16;3492511;28;20138;-39
2020/12/09 00:15:20;;;;;;;22.83;8.63;;;;;;;-7.40;73.38;100543.78;3495004;28;20408;-40
2020/12/09 00:17:02;;;;;;;27.25;10.18;;;;;;;-7.39;73.36;100545.56;3491594;28;20048;-39
2020/12/09 00:18:43;;;;;;;22.77;8.38;;;;;;;-7.39;73.40;100541.41;3493631;28;20044;-39
2020/12/09 00:20:25;;;;;;;28.35;9.57;;;;;;;-7.37;73.23;100544.09;3494186;28;20075;-39
2020/12/09 00:22:08;;;;;;;21.73;10.02;;;;;;;-7.35;73.13;100549.28;3493219;28;20076;-40
2020/12/09 00:23:51;;;;;;;23.77;8.40;;;;;;;-7.33;73.01;100546.16;3495158;28;20471;-40
2020/12/09 00:25:33;;;;;;;26.90;10.77;;;;;;;-7.32;73.12;100542.91;3494117;28;20135;-41
2020/12/09 00:27:14;;;;;;;17.40;8.30;;;;;;;-7.29;73.07;100549.91;3492380;28;20562;-39
2020/12/09 00:28:57;;;;;;;26.85;10.85;;;;;;;-7.27;72.98;100551.81;3494779;28;20049;-40
2020/12/09 00:30:38;;;;;;;27.40;9.40;;;;;;;-7.24;72.78;100552.13;3490670;28;20106;-40
2020/12/09 00:32:20;;;;;;;28.38;10.27;;;;;;;-7.21;72.88;100554.03;3491072;28;20501;-40
2020/12/09 00:34:03;;;;;;;18.05;7.97;;;;;;;-7.19;72.97;100552.56;3491625;28;20044;-40
2020/12/09 00:35:44;;;;;;;18.52;8.68;;;;;;;-7.15;72.72;100556.25;3487521;28;20122;-40
2020/12/09 00:37:26;;;;;;;19.95;7.63;;;;;;;-7.12;72.92;100551.53;3493356;28;20074;-41
2020/12/09 00:39:08;;;;;;;24.30;9.60;;;;;;;-7.10;72.66;100545.91;3495879;28;20048;-40
2020/12/09 00:40:49;;;;;;;22.42;8.82;;;;;;;-7.06;72.56;100547.09;3494122;28;20087;-39
2020/12/09 00:42:31;;;;;;;23.23;8.48;;;;;;;-7.03;72.51;100544.84;3494172;28;20417;-40
2020/12/09 00:44:12;;;;;;;21.67;8.15;;;;;;;-7.00;72.29;100540.09;3495989;28;20060;-40
2020/12/09 00:45:54;;;;;;;16.40;6.95;;;;;;;-6.97;72.15;100535.38;3493601;28;20520;-40
2020/12/09 00:47:40;;;;;;;19.33;8.98;;;;;;;-6.94;71.83;100529.72;3489322;28;20082;-55
2020/12/09 00:49:21;;;;;;;25.73;8.30;;;;;;;-6.93;71.95;100529.88;3492718;28;20087;-54
2020/12/09 00:51:02;;;;;;;22.98;8.70;;;;;;;-6.91;71.50;100523.34;3492923;28;20048;-53
2020/12/09 00:52:45;;;;;;;29.45;9.77;;;;;;;-6.88;71.47;100527.81;3494125;28;20049;-54
2020/12/09 00:54:26;;;;;;;17.42;6.97;;;;;;;-6.87;71.60;100525.44;3493011;28;20059;-54
2020/12/09 00:56:09;;;;;;;25.95;8.35;;;;;;;-6.86;71.10;100529.72;3495458;28;20094;-52
2020/12/09 00:57:50;;;;;;;18.65;7.38;;;;;;;-6.84;71.04;100527.34;3498179;28;20477;-53
2020/12/09 00:59:32;;;;;;;19.75;6.93;;;;;;;-6.85;71.20;100523.94;3485905;28;20048;-51
2020/12/09 01:01:14;;;;;;;17.65;6.88;;;;;;;-6.84;71.15;100519.78;3485281;28;20045;-52
2020/12/09 01:02:55;;;;;;;21.80;8.23;;;;;;;-6.83;71.07;100526.63;3498294;28;20074;-55
2020/12/09 01:04:37;;;;;;;21.40;8.10;;;;;;;-6.82;71.01;100525.84;3496266;28;20414;-52
2020/12/09 01:06:18;;;;;;;21.63;7.50;;;;;;;-6.82;71.26;100519.19;3495982;28;20045;-40
2020/12/09 01:08:00;;;;;;;19.42;8.63;;;;;;;-6.81;71.07;100515.03;3497678;28;20048;-39
2020/12/09 01:09:42;;;;;;;18.88;7.88;;;;;;;-6.81;70.98;100517.56;3496572;28;20297;-40
2020/12/09 01:11:23;;;;;;;20.00;7.85;;;;;;;-6.81;70.69;100510.88;3496708;28;20045;-40
2020/12/09 01:13:05;;;;;;;18.23;8.57;;;;;;;-6.81;70.68;100517.56;3495933;28;20072;-53
2020/12/09 01:14:46;;;;;;;20.85;7.53;;;;;;;-6.81;70.72;100510.88;3493613;28;20072;-40
2020/12/09 01:16:27;;;;;;;15.50;7.10;;;;;;;-6.81;70.98;100505.81;3498444;28;20048;-40
2020/12/09 01:18:09;;;;;;;16.40;6.97;;;;;;;-6.79;71.24;100507.63;3494888;28;20087;-40
2020/12/09 01:19:50;;;;;;;22.23;8.30;;;;;;;-6.80;71.09;100506.69;3494897;28;20055;-39
2020/12/09 01:21:32;;;;;;;22.17;7.72;;;;;;;-6.79;70.79;100505.09;3498057;28;20578;-40
2020/12/09 01:23:14;;;;;;;18.23;7.32;;;;;;;-6.79;70.71;100505.09;3493566;28;20075;-54
2020/12/09 01:24:56;;;;;;;20.73;7.65;;;;;;;-6.77;70.80;100511.16;3493729;28;20045;-40
2020/12/09 01:26:37;;;;;;;15.07;6.50;;;;;;;-6.77;70.89;100508.66;3498172;28;20044;-40
2020/12/09 01:28:19;;;;;;;17.55;7.28;;;;;;;-6.78;70.97;100507.75;3496025;28;20133;-51
2020/12/09 01:30:00;;;;;;;18.25;8.27;;;;;;;-6.77;70.97;100509.53;3496475;28;20083;-54
2020/12/09 01:31:42;;;;;;;19.70;7.90;;;;;;;-6.75;71.16;100508.03;3497938;28;20052;-53
2020/12/09 01:33:24;;;;;;;21.15;8.65;;;;;;;-6.72;71.17;100507.44;3493426;28;20080;-55
2020/12/09 01:35:05;;;;;;;16.33;6.80;;;;;;;-6.73;71.39;100509.09;3497530;28;20048;-55
2020/12/09 01:36:46;;;;;;;18.92;7.53;;;;;;;-6.71;71.40;100509.22;3496613;28;20076;-54
2020/12/09 01:38:28;;;;;;;17.35;6.68;;;;;;;-6.70;71.24;100511.88;3494585;28;20248;-55
2020/12/09 01:40:10;;;;;;;20.15;8.55;;;;;;;-6.68;70.93;100509.50;3497851;28;20049;-51
2020/12/09 01:41:51;;;;;;;20.52;7.80;;;;;;;-6.67;71.19;100507.13;3485945;28;20060;-55
2020/12/09 01:43:43;;;;;;;30.23;7.47;;;;;;;-6.67;71.12;100514.72;3486987;28;20045;-55
2020/12/09 01:45:24;;;;;;;17.80;7.38;;;;;;;-6.64;70.93;100512.47;3498106;28;20072;-55
2020/12/09 01:47:06;;;;;;;18.50;8.25;;;;;;;-6.62;71.46;100505.06;3493299;28;20080;-53
2020/12/09 01:48:48;;;;;;;17.40;7.50;;;;;;;-6.61;71.53;100511.88;3494296;28;20067;-54
2020/12/09 01:50:30;;;;;;;16.25;7.38;;;;;;;-6.59;71.24;100515.41;3498131;28;20076;-39
2020/12/09 01:52:12;;;;;;;14.55;6.80;;;;;;;-6.56;71.33;100509.78;3493345;28;20080;-40
2020/12/09 01:53:56;;;;;;;15.10;6.85;;;;;;;-6.56;71.24;100503.09;3494484;28;20354;-51
2020/12/09 01:55:37;;;;;;;19.35;7.32;;;;;;;-6.52;70.88;100514.38;3496913;28;20048;-52
2020/12/09 01:57:19;;;;;;;15.20;6.85;;;;;;;-6.52;71.07;100512.72;3494476;28;20425;-54
2020/12/09 01:59:00;;;;;;;19.98;6.32;;;;;;;-6.49;71.27;100519.72;3497311;28;20076;-40
2020/12/09 02:00:42;;;;;;;15.63;7.05;;;;;;;-6.48;71.56;100517.34;3495059;28;20091;-40
2020/12/09 02:02:23;;;;;;;20.80;7.70;;;;;;;-6.46;71.68;100518.38;3495632;28;20076;-40
2020/12/09 02:04:04;;;;;;;19.88;7.18;;;;;;;-6.44;71.55;100519.41;3497589;28;20079;-54
2020/12/09 02:05:46;;;;;;;19.13;7.18;;;;;;;-6.41;71.42;100517.91;3495287;28;20075;-54
2020/12/09 02:07:29;;;;;;;21.88;7.50;;;;;;;-6.41;71.03;100516.28;3494568;28;20048;-53
2020/12/09 02:09:11;;;;;;;18.33;7.07;;;;;;;-6.37;71.28;100527.56;3497628;28;20048;-54
2020/12/09 02:10:56;;;;;;;16.65;7.60;;;;;;;-6.36;70.95;100519.22;3495488;28;20103;-53
2020/12/09 02:12:39;;;;;;;24.55;7.57;;;;;;;-6.34;70.95;100520.25;3493224;28;20117;-55
2020/12/09 02:14:21;;;;;;;16.52;7.55;;;;;;;-6.33;70.86;100527.97;3497598;28;20493;-39
2020/12/09 02:16:03;;;;;;;18.77;7.78;;;;;;;-6.32;71.23;100524.72;3496572;28;20075;-40
2020/12/09 02:17:44;;;;;;;18.60;8.15;;;;;;;-6.30;71.61;100523.22;3494461;28;20057;-56
2020/12/09 02:19:27;;;;;;;21.05;7.95;;;;;;;-6.28;71.33;100518.31;3490770;28;20041;-54
2020/12/09 02:21:08;;;;;;;15.73;7.22;;;;;;;-6.26;71.39;100520.22;3495295;28;20075;-50
2020/12/09 02:22:52;;;;;;;27.90;7.82;;;;;;;-6.23;71.19;100519.66;3494221;28;20515;-55
2020/12/09 02:24:34;;;;;;;22.70;8.00;;;;;;;-6.22;71.11;100521.41;3497129;28;20052;-40
2020/12/09 02:26:16;;;;;;;16.67;7.28;;;;;;;-6.20;71.46;100517.38;3493099;28;20076;-40
2020/12/09 02:27:57;;;;;;;21.52;8.73;;;;;;;-6.19;71.00;100513.25;3484369;28;20080;-40
2020/12/09 02:29:38;;;;;;;10.77;5.25;;;;;;;-6.17;71.33;100514.28;3496208;28;20110;-40
2020/12/09 02:31:20;;;;;;;16.83;7.60;;;;;;;-6.16;71.74;100511.91;3495283;28;20102;-40
2020/12/09 02:33:01;;;;;;;25.27;8.20;;;;;;;-6.15;71.29;100512.78;3497014;28;20417;-40
2020/12/09 02:34:43;;;;;;;19.42;8.40;;;;;;;-6.15;71.28;100513.66;3496108;28;20064;-40
2020/12/09 02:36:24;;;;;;;15.55;6.63;;;;;;;-6.13;71.42;100512.19;3495307;28;20055;-40
2020/12/09 02:38:07;;;;;;;19.85;8.02;;;;;;;-6.11;71.36;100515.75;3496949;28;20079;-40
2020/12/09 02:39:48;;;;;;;16.17;5.88;;;;;;;-6.10;71.39;100514.09;3495956;28;20087;-40
2020/12/09 02:41:30;;;;;;;18.58;7.80;;;;;;;-6.09;71.24;100515.88;3495077;28;20165;-40
2020/12/09 02:43:12;;;;;;;16.80;7.55;;;;;;;-6.07;71.69;100515.25;3497112;28;20075;-54
2020/12/09 02:44:53;;;;;;;16.05;7.10;;;;;;;-6.06;71.58;100516.16;3493129;28;20091;-53
2020/12/09 02:46:35;;;;;;;22.90;8.27;;;;;;;-6.05;71.55;100513.75;3494238;28;20075;-40
2020/12/09 02:48:16;;;;;;;16.92;7.18;;;;;;;-6.03;71.45;100515.56;3497312;28;20048;-40
2020/12/09 02:49:58;;;;;;;17.92;6.93;;;;;;;-6.02;71.23;100520.75;3494002;28;20083;-54
2020/12/09 02:51:39;;;;;;;16.15;6.03;;;;;;;-6.01;71.29;100521.63;3494002;28;20044;-54
2020/12/09 02:53:21;;;;;;;17.27;7.13;;;;;;;-6.00;71.39;100520.91;3495681;28;20091;-55
2020/12/09 02:55:02;;;;;;;16.52;7.60;;;;;;;-5.99;71.61;100526.06;3495181;28;20110;-52
2020/12/09 02:56:44;;;;;;;15.65;7.22;;;;;;;-5.97;71.68;100527.13;3496783;28;20056;-54
2020/12/09 02:58:26;;;;;;;16.77;6.30;;;;;;;-5.95;71.87;100525.63;3485177;28;20098;-40
2020/12/09 03:00:07;;;;;;;20.00;7.85;;;;;;;-5.94;72.11;100532.44;3489531;28;20049;-40
2020/12/09 03:01:48;;;;;;;14.70;6.82;;;;;;;-5.93;72.17;100531.69;3497249;28;20170;-40
2020/12/09 03:03:30;;;;;;;14.85;7.00;;;;;;;-5.91;71.55;100536.91;3495037;28;20157;-55
2020/12/09 03:05:11;;;;;;;18.08;7.82;;;;;;;-5.90;71.50;100534.53;3492525;28;20083;-52
2020/12/09 03:06:53;;;;;;;15.27;6.70;;;;;;;-5.90;71.46;100536.13;3497248;28;20088;-55
2020/12/09 03:08:35;;;;;;;25.20;7.70;;;;;;;-5.88;71.64;100530.50;3493859;28;20048;-40
2020/12/09 03:10:16;;;;;;;19.25;7.32;;;;;;;-5.86;71.57;100531.53;3494920;28;20121;-40
2020/12/09 03:11:58;;;;;;;18.60;8.25;;;;;;;-5.84;71.85;100534.19;3496899;28;20174;-40
2020/12/09 03:13:39;;;;;;;16.02;6.95;;;;;;;-5.83;72.25;100541.00;3492521;28;20152;-40
2020/12/09 03:15:21;;;;;;;17.27;7.45;;;;;;;-5.82;71.84;100539.38;3495605;28;20040;-40
2020/12/09 03:17:02;;;;;;;16.85;6.75;;;;;;;-5.81;71.90;100538.63;3494884;28;20098;-40
2020/12/09 03:18:44;;;;;;;16.38;6.15;;;;;;;-5.80;71.87;100541.28;3492202;28;20059;-40
2020/12/09 03:20:25;;;;;;;18.35;7.57;;;;;;;-5.78;71.76;100538.91;3495581;28;20402;-40
2020/12/09 03:22:07;;;;;;;14.20;6.85;;;;;;;-5.76;71.83;100539.94;3492549;28;20064;-55
2020/12/09 03:23:49;;;;;;;20.10;8.15;;;;;;;-5.76;71.93;100529.84;3486684;28;20049;-54
2020/12/09 03:25:31;;;;;;;17.00;7.43;;;;;;;-5.75;72.07;100537.56;3496918;28;20135;-40
2020/12/09 03:27:12;;;;;;;16.90;7.38;;;;;;;-5.75;71.87;100537.56;3494630;28;20110;-40
2020/12/09 03:28:54;;;;;;;21.95;7.50;;;;;;;-5.74;71.69;100531.78;3493601;28;20075;-55
2020/12/09 03:30:35;;;;;;;16.88;6.93;;;;;;;-5.73;71.92;100531.00;3496780;28;20114;-54
2020/12/09 03:32:17;;;;;;;13.80;6.35;;;;;;;-5.71;71.96;100526.09;3492279;28;20040;-52
2020/12/09 03:33:58;;;;;;;16.35;6.55;;;;;;;-5.71;71.92;100532.03;3495284;28;20060;-51
2020/12/09 03:35:39;;;;;;;17.92;6.97;;;;;;;-5.70;72.45;100523.72;3496532;28;20045;-53
2020/12/09 03:37:21;;;;;;;20.23;8.05;;;;;;;-5.68;72.25;100533.97;3494765;28;20048;-52
2020/12/09 03:39:03;;;;;;;15.77;6.82;;;;;;;-5.68;72.37;100522.22;3495748;28;20090;-40
2020/12/09 03:40:45;;;;;;;19.05;7.63;;;;;;;-5.65;72.17;100518.19;3494923;28;20059;-40
2020/12/09 03:42:26;;;;;;;18.98;8.57;;;;;;;-5.65;71.83;100521.63;3494647;28;20072;-40
2020/12/09 03:44:07;;;;;;;18.58;7.65;;;;;;;-5.65;71.97;100519.09;3496160;28;20083;-54
2020/12/09 03:45:49;;;;;;;18.80;7.57;;;;;;;-5.65;71.99;100508.97;3495107;28;20086;-53
2020/12/09 03:47:31;;;;;;;16.73;7.18;;;;;;;-5.63;71.91;100517.59;3494493;28;20052;-54
2020/12/09 03:49:12;;;;;;;20.67;8.27;;;;;;;-5.63;72.19;100511.66;3496664;28;20052;-40
2020/12/09 03:50:54;;;;;;;20.38;6.97;;;;;;;-5.61;72.34;100521.13;3493332;28;20057;-40
2020/12/09 03:52:36;;;;;;;14.93;6.60;;;;;;;-5.60;72.46;100524.53;3494541;28;20051;-40
2020/12/09 03:54:18;;;;;;;14.60;6.80;;;;;;;-5.59;72.32;100512.03;3496518;28;20098;-40
2020/12/09 03:56:00;;;;;;;16.08;6.35;;;;;;;-5.60;72.62;100517.88;3494577;28;20094;-40
2020/12/09 03:57:41;;;;;;;17.75;7.80;;;;;;;-5.58;72.57;100511.31;3493392;28;20056;-40
2020/12/09 03:59:22;;;;;;;16.27;7.63;;;;;;;-5.58;72.58;100513.84;3496401;28;20060;-40
2020/12/09 04:01:04;;;;;;;13.45;6.85;;;;;;;-5.56;72.68;100512.34;3491630;28;20055;-40
2020/12/09 04:02:46;;;;;;;18.75;7.60;;;;;;;-5.55;72.59;100510.69;3494923;28;20080;-40
2020/12/09 04:04:27;;;;;;;18.05;7.60;;;;;;;-5.54;72.43;100510.81;3494161;28;20067;-40
2020/12/09 04:06:08;;;;;;;13.52;6.10;;;;;;;-5.53;72.49;100509.19;3493065;28;20040;-40
2020/12/09 04:07:50;;;;;;;21.13;7.28;;;;;;;-5.53;72.37;100507.56;3496366;28;20078;-40
2020/12/09 04:09:32;;;;;;;22.67;8.63;;;;;;;-5.52;72.15;100505.91;3494653;28;20053;-40
2020/12/09 04:11:14;;;;;;;18.88;7.78;;;;;;;-5.52;72.32;100508.44;3493057;28;20049;-40
2020/12/09 04:12:55;;;;;;;19.92;7.57;;;;;;;-5.51;72.72;100502.63;3496278;28;20051;-40
2020/12/09 04:14:37;;;;;;;17.63;8.85;;;;;;;-5.50;72.63;100504.41;3492808;28;20052;-40
2020/12/09 04:16:18;;;;;;;23.63;7.90;;;;;;;-5.51;72.45;100503.53;3492832;28;20044;-40
2020/12/09 04:18:00;;;;;;;21.58;7.80;;;;;;;-5.50;72.40;100506.94;3495464;28;20090;-40
2020/12/09 04:19:41;;;;;;;19.60;7.55;;;;;;;-5.50;72.63;100506.94;3491514;28;20063;-40
2020/12/09 04:21:22;;;;;;;20.02;8.18;;;;;;;-5.49;72.94;100503.69;3494613;28;20079;-40
2020/12/09 04:23:04;;;;;;;15.65;6.85;;;;;;;-5.49;72.84;100512.13;3494679;28;20093;-40
2020/12/09 04:24:46;;;;;;;18.15;8.18;;;;;;;-5.48;72.83;100515.53;3494011;28;21030;-42
2020/12/09 04:26:28;;;;;;;18.08;7.70;;;;;;;-5.47;72.76;100513.94;3493105;28;20072;-40
2020/12/09 04:28:09;;;;;;;18.40;7.40;;;;;;;-5.47;72.62;100516.47;3493034;28;20076;-40
2020/12/09 04:29:51;;;;;;;16.45;7.43;;;;;;;-5.47;72.60;100512.28;3492333;28;20072;-41
2020/12/09 04:31:32;;;;;;;24.90;8.25;;;;;;;-5.47;72.72;100514.81;3495878;28;20428;-53
2020/12/09 04:33:14;;;;;;;17.55;8.00;;;;;;;-5.46;72.96;100506.44;3492034;28;20048;-51
2020/12/09 04:34:57;;;;;;;19.63;8.18;;;;;;;-5.46;72.63;100508.09;3494335;28;20055;-53
2020/12/09 04:36:38;;;;;;;18.25;7.93;;;;;;;-5.46;72.88;100508.97;3492938;28;20044;-53
2020/12/09 04:38:20;;;;;;;16.40;7.25;;;;;;;-5.46;73.33;100503.94;3488690;28;20497;-55
2020/12/09 04:40:03;;;;;;;20.90;8.70;;;;;;;-5.45;73.21;100512.44;3494847;28;20074;-54
2020/12/09 04:41:45;;;;;;;18.65;8.55;;;;;;;-5.44;73.25;100515.09;3494096;28;20101;-55
2020/12/09 04:43:31;;;;;;;22.85;8.68;;;;;;;-5.43;73.34;100506.75;3493251;28;20048;-54
2020/12/09 04:45:13;;;;;;;17.98;8.45;;;;;;;-5.43;73.24;100514.31;3493261;28;20049;-54
2020/12/09 04:47:01;;;;;;;21.27;8.30;;;;;;;-5.43;73.04;100504.22;3493013;28;20537;-54
2020/12/09 04:48:55;;;;;;;15.55;6.97;;;;;;;-5.40;73.18;100511.19;3491439;28;20106;-54
2020/12/09 04:50:57;;;;;;;19.33;7.40;;;;;;;-5.40;73.28;100509.56;3495044;28;20107;-53
2020/12/09 04:52:44;;;;;;;20.83;8.98;;;;;;;-5.40;73.36;100517.13;3489262;28;20044;-52
2020/12/09 04:54:37;;;;;;;16.42;7.78;;;;;;;-5.40;73.32;100514.59;3492941;28;20044;-40
2020/12/09 04:56:27;;;;;;;20.17;7.60;;;;;;;-5.38;73.37;100517.28;3491952;28;20044;-40
2020/12/09 04:58:16;;;;;;;20.25;8.43;;;;;;;-5.38;73.41;100523.22;3492456;28;20044;-40
2020/12/09 05:00:00;;;;;;;15.32;6.95;;;;;;;-5.38;73.76;100519.81;3491595;28;20102;-40
2020/12/09 05:02:03;;;;;;;15.82;7.20;;;;;;;-5.37;73.74;100521.56;3492862;28;20081;-40
2020/12/09 05:03:46;;;;;;;19.85;7.38;;;;;;;-5.35;73.91;100522.63;3494306;28;20052;-40
2020/12/09 05:05:28;;;;;;;17.60;8.13;;;;;;;-5.36;73.98;100525.88;3492850;28;20483;-40
2020/12/09 05:07:10;;;;;;;19.42;7.70;;;;;;;-5.35;73.91;100528.56;3491828;28;20549;-40
2020/12/09 05:08:53;;;;;;;18.08;8.95;;;;;;;-5.35;74.07;100528.56;3495898;28;20049;-40
2020/12/09 05:10:37;;;;;;;23.40;7.70;;;;;;;-5.34;74.24;100530.31;3493262;28;20094;-40
2020/12/09 05:12:19;;;;;;;21.58;7.95;;;;;;;-5.33;74.10;100519.47;3493791;28;20076;-40
2020/12/09 05:14:02;;;;;;;26.52;8.23;;;;;;;-5.32;74.27;100523.78;3495925;28;20313;-40
2020/12/09 05:15:44;;;;;;;17.60;6.38;;;;;;;-5.32;74.59;100515.28;3485446;28;20513;-40
2020/12/09 05:17:34;;;;;;;22.23;9.40;;;;;;;-5.31;74.54;100519.59;3485733;28;20076;-40
2020/12/09 05:19:16;;;;;;;19.80;9.02;;;;;;;-5.31;74.35;100520.47;3494656;28;20045;-53
2020/12/09 05:21:08;;;;;;;20.92;8.07;;;;;;;-5.31;74.37;100519.59;3493455;28;20087;-55
2020/12/09 05:22:54;;;;;;;26.35;9.80;;;;;;;-5.31;74.18;100525.53;3492246;28;20525;-55
2020/12/09 05:24:35;;;;;;;18.20;8.23;;;;;;;-5.30;74.38;100528.94;3495372;28;20489;-52
2020/12/09 05:26:22;;;;;;;19.30;8.63;;;;;;;-5.30;74.34;100536.53;3494145;28;20055;-52
2020/12/09 05:28:05;;;;;;;21.63;8.60;;;;;;;-5.31;74.56;100535.66;3490952;28;20052;-51
2020/12/09 05:29:48;;;;;;;15.80;7.50;;;;;;;-5.30;74.62;100534.00;3495563;28;20084;-52
2020/12/09 05:31:30;;;;;;;22.15;9.07;;;;;;;-5.30;74.56;100534.00;3492350;28;20067;-54
2020/12/09 05:33:13;;;;;;;20.85;8.57;;;;;;;-5.30;74.78;100539.97;3493617;28;20105;-54
2020/12/09 05:34:55;;;;;;;25.45;9.10;;;;;;;-5.28;74.86;100537.59;3495786;28;20053;-54
2020/12/09 05:36:45;;;;;;;17.83;7.78;;;;;;;-5.28;74.95;100537.59;3493771;28;20048;-54
2020/12/09 05:38:29;;;;;;;26.58;9.35;;;;;;;-5.27;74.89;100538.47;3492353;28;20059;-39
2020/12/09 05:40:10;;;;;;;23.85;9.60;;;;;;;-5.29;74.99;100529.09;3495732;28;20302;-40
2020/12/09 05:41:52;;;;;;;17.20;8.57;;;;;;;-5.28;75.23;100535.06;3494651;28;20052;-41
2020/12/09 05:43:34;;;;;;;22.05;8.43;;;;;;;-5.29;75.24;100535.81;3495071;28;20491;-40
2020/12/09 05:45:15;;;;;;;21.73;9.75;;;;;;;-5.29;75.33;100536.69;3488371;28;20052;-40
2020/12/09 05:46:59;;;;;;;19.35;9.00;;;;;;;-5.27;75.35;100533.41;3489313;28;20083;-40
2020/12/09 05:48:40;;;;;;;;;;;;;;;-5.27;75.36;100535.94;3486293;28;20045;-54
2020/12/09 05:50:22;;;;;;;19.77;8.75;;;;;;;-5.27;75.42;100536.81;3496626;28;19931;-51
2020/12/09 05:52:10;;;;;;;20.95;8.73;;;;;;;-5.27;75.45;100528.34;3490311;28;20398;-54
2020/12/09 05:53:52;;;;;;;18.05;8.18;;;;;;;-5.26;75.68;100537.69;3483604;28;20092;-54
2020/12/09 05:55:33;;;;;;;24.73;9.55;;;;;;;-5.26;75.87;100530.13;3486823;28;20138;-54
2020/12/09 05:57:16;;;;;;;18.77;9.75;;;;;;;-5.27;76.02;100529.25;3489844;28;20048;-54
2020/12/09 05:58:58;;;;;;;21.02;9.80;;;;;;;-5.26;75.96;100531.03;3497383;28;20048;-51
2020/12/09 06:00:39;;;;;;;18.42;8.57;;;;;;;-5.25;76.17;100534.44;3496362;28;20048;-54
2020/12/09 06:02:22;;;;;;;17.30;8.48;;;;;;;-5.25;76.26;100527.72;3494179;28;20155;-50
2020/12/09 06:04:03;;;;;;;25.90;9.27;;;;;;;-5.24;76.04;100531.16;3497913;28;20091;-53
2020/12/09 06:05:44;;;;;;;24.17;9.52;;;;;;;-5.24;76.12;100536.22;3495676;28;20045;-54
2020/12/09 06:07:27;;;;;;;25.10;9.07;;;;;;;-5.24;76.18;100527.00;3492881;28;20559;-55
2020/12/09 06:09:11;;;;;;;21.02;9.10;;;;;;;-5.24;76.34;100524.47;3497861;28;20076;-56
2020/12/09 06:11:00;;;;;;;25.48;9.13;;;;;;;-5.23;76.48;100528.75;3495959;28;20056;-57
2020/12/09 06:12:49;;;;;;;23.67;9.70;;;;;;;-5.24;76.72;100532.03;3487352;28;20056;-53
2020/12/09 06:14:31;;;;;;;20.35;9.70;;;;;;;-5.23;76.82;100530.41;3495399;28;20133;-39
2020/12/09 06:16:13;;;;;;;28.58;9.18;;;;;;;-5.23;76.93;100532.94;3494231;28;20494;-39
2020/12/09 06:18:02;;;;;;;20.88;9.57;;;;;;;-5.23;77.00;100532.94;3495704;28;20413;-40
2020/12/09 06:19:44;;;;;;;19.05;8.55;;;;;;;-5.22;77.07;100532.19;3496039;28;20090;-42
2020/12/09 06:21:25;;;;;;;24.42;9.45;;;;;;;-5.22;77.30;100535.59;3494865;28;20049;-39
2020/12/09 06:23:10;;;;;;;24.15;9.40;;;;;;;-5.21;77.28;100544.97;3495170;28;20428;-42
2020/12/09 06:24:53;;;;;;;21.50;9.70;;;;;;;-5.21;77.41;100539.00;3497691;28;20091;-41
2020/12/09 06:26:34;;;;;;;21.90;10.27;;;;;;;-5.20;77.68;100541.69;3494443;28;20052;-39
2020/12/09 06:28:17;;;;;;;33.50;11.38;;;;;;;-5.19;77.76;100543.47;3495368;28;20081;-40
2020/12/09 06:29:59;;;;;;;21.80;8.50;;;;;;;-5.18;77.69;100545.22;3491213;28;20429;-56
2020/12/09 06:31:40;;;;;;;22.17;10.02;;;;;;;-5.19;77.90;100543.47;3492889;28;20048;-56
2020/12/09 06:33:36;;;;;;;18.27;8.20;;;;;;;-5.18;77.89;100542.69;3493568;28;20068;-54
2020/12/09 06:35:18;;;;;;;24.00;9.88;;;;;;;-5.17;78.11;100526.78;3483740;28;20053;-56
2020/12/09 06:37:10;;;;;;;24.35;10.00;;;;;;;-5.16;78.10;100535.25;3492995;28;20094;-53
2020/12/09 06:39:17;;;;;;;26.02;10.35;;;;;;;-5.15;78.08;100531.97;3495257;28;20048;-52
2020/12/09 06:41:12;;;;;;;25.65;10.20;;;;;;;-5.15;78.27;100535.41;3496278;28;20060;-39
2020/12/09 06:43:05;;;;;;;26.40;10.30;;;;;;;-5.13;78.43;100530.47;3483610;28;20049;-39
2020/12/09 06:44:49;;;;;;;27.95;11.50;;;;;;;-5.13;78.60;100531.34;3492481;28;20049;-53
2020/12/09 06:46:39;;;;;;;29.05;11.40;;;;;;;-5.12;78.51;100530.63;3493547;28;20052;-53
2020/12/09 06:48:20;;;;;;;26.27;9.60;;;;;;;-5.11;78.51;100539.09;3496888;28;20044;-52
2020/12/09 06:50:02;;;;;;;25.35;10.35;;;;;;;-5.10;78.59;100540.88;3494869;28;20048;-53
2020/12/09 06:51:43;;;;;;;25.77;10.48;;;;;;;-5.10;78.78;100544.28;3496120;28;20094;-55
2020/12/09 06:53:25;;;;;;;22.92;10.05;;;;;;;-5.08;78.84;100536.84;3496816;28;20523;-54
2020/12/09 06:55:07;;;;;;;21.13;9.55;;;;;;;-5.07;78.96;100533.56;3492613;28;20079;-54
2020/12/09 06:57:12;;;;;;;29.60;10.90;;;;;;;-5.04;78.94;100530.41;3492926;28;20040;-55
2020/12/09 06:58:53;;;;;;;;;;;;;;;-5.04;79.06;100538.88;3483602;28;20072;-56
2020/12/09 07:00:35;;;;;;;18.67;9.30;;;;;;;-5.02;78.91;100539.03;3492253;28;20332;-54
2020/12/09 07:02:27;;;;;;;29.15;11.43;;;;;;;-5.01;78.89;100534.09;3494875;28;20049;-53
2020/12/09 07:04:09;;;;;;;25.60;11.15;;;;;;;-5.00;78.89;100538.41;3497125;28;20110;-40
2020/12/09 07:05:50;;;;;;;23.88;10.50;;;;;;;-4.97;79.00;100545.38;3494860;28;20513;-40
2020/12/09 07:07:33;;;;;;;31.25;12.75;;;;;;;-4.96;79.07;100547.16;3494795;28;20083;-40
2020/12/09 07:09:15;;;;;;;36.67;20.15;;;;;;;-4.94;78.93;100545.63;3497230;28;20090;-40
2020/12/09 07:10:58;;;;;;;33.97;17.17;;;;;;;-4.93;79.13;100554.97;3493506;28;20098;-41
2020/12/09 07:12:39;;;;;;;33.08;13.30;;;;;;;-4.92;79.35;100551.72;3492436;28;20041;-56
2020/12/09 07:14:21;;;;;;;30.42;11.25;;;;;;;-4.90;79.49;100550.19;3496868;28;20470;-42
2020/12/09 07:16:02;;;;;;;29.45;12.30;;;;;;;-4.88;79.75;100552.88;3493394;28;20080;-40
2020/12/09 07:17:44;;;;;;;24.40;10.73;;;;;;;-4.88;79.86;100551.22;3495504;28;20497;-41
2020/12/09 07:19:26;;;;;;;25.83;10.93;;;;;;;-4.86;79.75;100548.81;3495094;28;20402;-42
2020/12/09 07:21:08;;;;;;;25.08;10.93;;;;;;;-4.85;79.78;100551.50;3493895;28;20075;-39
2020/12/09 07:22:49;;;;;;;20.83;10.13;;;;;;;-4.83;79.67;100549.09;3495777;28;20048;-40
2020/12/09 07:24:30;;;;;;;29.90;11.10;;;;;;;-4.81;79.70;100552.66;3493382;28;20052;-41
2020/12/09 07:26:26;;;;;;;29.05;11.95;;;;;;;-4.78;79.78;100550.41;3494535;28;20060;-41
2020/12/09 07:28:07;;;;;;;28.10;11.57;;;;;;;-4.77;79.54;100552.16;3496223;28;20480;-40
2020/12/09 07:29:49;;;;;;;22.88;10.05;;;;;;;-4.75;79.65;100553.22;3495318;28;20134;-40
2020/12/09 07:31:31;;;;;;;23.77;10.27;;;;;;;-4.75;79.49;100546.50;3493431;28;20052;-40
2020/12/09 07:33:16;;;;;;;27.98;12.80;;;;;;;-4.73;79.80;100551.69;3496337;28;20053;-41
2020/12/09 07:34:59;;;;;;;25.65;9.95;;;;;;;-4.70;79.66;100546.88;3494164;28;20093;-40
2020/12/09 07:36:49;;;;;;;27.20;12.68;;;;;;;-4.68;79.74;100550.47;3493923;28;20474;-41
2020/12/09 07:38:31;;;;;;;28.85;11.48;;;;;;;-4.65;79.92;100553.25;3494452;28;20390;-40
2020/12/09 07:40:19;;;;;;;32.25;13.90;;;;;;;-4.62;79.80;100552.66;3495176;28;20051;-39
2020/12/09 07:42:02;;;;;;;30.73;13.18;;;;;;;-4.60;80.09;100551.13;3494127;28;20040;-40
2020/12/09 07:43:49;;;;;;;27.83;11.83;;;;;;;-4.58;80.12;100550.50;3492762;28;20052;-40
2020/12/09 07:45:30;;;;;;;21.73;10.05;;;;;;;-4.57;80.07;100554.81;3494276;28;20079;-40
2020/12/09 07:47:12;;;;;;;27.23;11.23;;;;;;;-4.54;80.02;100556.72;3493644;28;20083;-40
2020/12/09 07:48:54;;;;;;;28.63;10.70;;;;;;;-4.53;80.01;100550.91;3494961;28;20147;-40
2020/12/09 07:50:37;;;;;;;23.05;10.15;;;;;;;-4.50;80.12;100555.38;3492199;28;20072;-40
2020/12/09 07:52:24;;;;;;;23.08;10.20;;;;;;;-4.48;79.77;100559.81;3491354;28;20068;-40